sensor_id;sensor_type;location;lat;lon;timestamp;pressure;altitude;pressure_sealevel;temperature;humidity
49709;BME280;35601;55.902;13.606;2023-02-22T00:00:26;100905.69;;;-4.19;71.06
49709;BME280;35601;55.902;13.606;2023-02-22T00:02:54;100904.39;;;-3.96;71.25
49709;BME280;35601;55.902;13.606;2023-02-22T00:05:18;100904.86;;;-3.73;70.97
49709;BME280;35601;55.902;13.606;2023-02-22T00:07:43;100909.70;;;-4.22;70.97
49709;BME280;35601;55.902;13.606;2023-02-22T00:10:07;100909.21;;;-4.03;71.25
49709;BME280;35601;55.902;13.606;2023-02-22T00:12:32;100908.44;;;-4.24;71.68
49709;BME280;35601;55.902;13.606;2023-02-22T00:14:58;100905.07;;;-3.97;71.43
49709;BME280;35601;55.902;13.606;2023-02-22T00:17:23;100903.57;;;-3.93;71.26
49709;BME280;35601;55.902;13.606;2023-02-22T00:19:49;100906.62;;;-3.93;71.20
49709;BME280;35601;55.902;13.606;2023-02-22T00:22:14;100912.13;;;-4.19;71.28
49709;BME280;35601;55.902;13.606;2023-02-22T00:24:40;100916.39;;;-4.16;71.51
49709;BME280;35601;55.902;13.606;2023-02-22T00:27:05;100920.29;;;-3.64;71.38
49709;BME280;35601;55.902;13.606;2023-02-22T00:29:30;100917.72;;;-4.17;70.62
49709;BME280;35601;55.902;13.606;2023-02-22T00:31:56;100919.85;;;-3.78;70.85
49709;BME280;35601;55.902;13.606;2023-02-22T00:34:21;100919.10;;;-4.05;70.89
49709;BME280;35601;55.902;13.606;2023-02-22T00:36:48;100915.19;;;-4.19;71.00
49709;BME280;35601;55.902;13.606;2023-02-22T00:39:12;100909.45;;;-4.21;70.89
49709;BME280;35601;55.902;13.606;2023-02-22T00:41:38;100909.44;;;-4.02;70.95
49709;BME280;35601;55.902;13.606;2023-02-22T00:44:03;100915.57;;;-4.10;71.28
49709;BME280;35601;55.902;13.606;2023-02-22T00:46:29;100920.82;;;-4.40;71.67
49709;BME280;35601;55.902;13.606;2023-02-22T00:48:54;100918.38;;;-4.19;71.92
49709;BME280;35601;55.902;13.606;2023-02-22T00:51:20;100918.98;;;-4.23;72.54
49709;BME280;35601;55.902;13.606;2023-02-22T00:53:45;100920.20;;;-4.23;72.54
49709;BME280;35601;55.902;13.606;2023-02-22T00:56:10;100920.59;;;-4.49;73.01
49709;BME280;35601;55.902;13.606;2023-02-22T00:58:36;100921.70;;;-4.54;73.19
49709;BME280;35601;55.902;13.606;2023-02-22T01:01:01;100924.95;;;-4.31;73.50
49709;BME280;35601;55.902;13.606;2023-02-22T01:03:27;100923.39;;;-4.79;73.99
49709;BME280;35601;55.902;13.606;2023-02-22T01:05:52;100924.27;;;-4.49;73.79
49709;BME280;35601;55.902;13.606;2023-02-22T01:08:18;100924.18;;;-4.48;73.86
49709;BME280;35601;55.902;13.606;2023-02-22T01:10:44;100924.34;;;-4.49;73.74
49709;BME280;35601;55.902;13.606;2023-02-22T01:13:09;100928.54;;;-4.22;73.48
49709;BME280;35601;55.902;13.606;2023-02-22T01:15:36;100928.56;;;-4.24;73.05
49709;BME280;35601;55.902;13.606;2023-02-22T01:18:00;100925.52;;;-4.52;72.75
49709;BME280;35601;55.902;13.606;2023-02-22T01:20:26;100923.22;;;-4.24;72.90
49709;BME280;35601;55.902;13.606;2023-02-22T01:22:52;100920.13;;;-4.28;73.01
49709;BME280;35601;55.902;13.606;2023-02-22T01:25:18;100922.19;;;-5.77;72.24
49709;BME280;35601;55.902;13.606;2023-02-22T01:27:41;100922.14;;;-4.45;71.57
49709;BME280;35601;55.902;13.606;2023-02-22T01:30:09;100923.53;;;-4.53;71.99
49709;BME280;35601;55.902;13.606;2023-02-22T01:32:33;100927.14;;;-4.58;71.52
49709;BME280;35601;55.902;13.606;2023-02-22T01:34:58;100929.91;;;-4.67;71.77
49709;BME280;35601;55.902;13.606;2023-02-22T01:37:23;100932.56;;;-4.24;71.90
49709;BME280;35601;55.902;13.606;2023-02-22T01:39:49;100931.46;;;-4.30;72.82
49709;BME280;35601;55.902;13.606;2023-02-22T01:42:14;100937.04;;;-4.31;73.52
49709;BME280;35601;55.902;13.606;2023-02-22T01:44:40;100940.16;;;-4.30;73.55
49709;BME280;35601;55.902;13.606;2023-02-22T01:47:06;100935.21;;;-4.36;73.15
49709;BME280;35601;55.902;13.606;2023-02-22T01:49:33;100933.88;;;-4.37;73.37
49709;BME280;35601;55.902;13.606;2023-02-22T01:51:58;100938.00;;;-4.39;73.42
49709;BME280;35601;55.902;13.606;2023-02-22T01:54:25;100940.99;;;-4.31;73.35
49709;BME280;35601;55.902;13.606;2023-02-22T01:56:50;100943.11;;;-4.32;73.24
49709;BME280;35601;55.902;13.606;2023-02-22T01:59:13;100943.35;;;-4.30;73.09
49709;BME280;35601;55.902;13.606;2023-02-22T02:01:39;100941.53;;;-4.35;72.66
49709;BME280;35601;55.902;13.606;2023-02-22T02:04:08;100939.94;;;-4.37;72.54
49709;BME280;35601;55.902;13.606;2023-02-22T02:06:32;100943.02;;;-4.35;72.31
49709;BME280;35601;55.902;13.606;2023-02-22T02:08:59;100944.83;;;-4.59;72.14
49709;BME280;35601;55.902;13.606;2023-02-22T02:11:22;100947.34;;;-4.59;71.73
49709;BME280;35601;55.902;13.606;2023-02-22T02:13:45;100949.85;;;-4.42;71.99
49709;BME280;35601;55.902;13.606;2023-02-22T02:16:11;100950.23;;;-4.93;71.78
49709;BME280;35601;55.902;13.606;2023-02-22T02:18:36;100946.14;;;-4.71;72.13
49709;BME280;35601;55.902;13.606;2023-02-22T02:28:34;100940.40;;;-4.61;71.92
49709;BME280;35601;55.902;13.606;2023-02-22T02:33:12;100937.43;;;-4.53;71.76
49709;BME280;35601;55.902;13.606;2023-02-22T02:35:42;100934.69;;;-4.61;71.81
49709;BME280;35601;55.902;13.606;2023-02-22T02:38:04;100933.48;;;-4.60;71.56
49709;BME280;35601;55.902;13.606;2023-02-22T02:40:31;100934.93;;;-4.32;71.35
49709;BME280;35601;55.902;13.606;2023-02-22T02:42:56;100935.15;;;-4.62;71.56
49709;BME280;35601;55.902;13.606;2023-02-22T02:45:19;100934.50;;;-4.81;71.61
49709;BME280;35601;55.902;13.606;2023-02-22T02:47:45;100936.72;;;-4.93;72.33
49709;BME280;35601;55.902;13.606;2023-02-22T02:50:11;100940.36;;;-4.96;73.25
49709;BME280;35601;55.902;13.606;2023-02-22T02:52:33;100941.40;;;-4.93;73.49
49709;BME280;35601;55.902;13.606;2023-02-22T02:54:59;100943.32;;;-4.90;73.23
49709;BME280;35601;55.902;13.606;2023-02-22T02:57:23;100946.02;;;-4.67;73.54
49709;BME280;35601;55.902;13.606;2023-02-22T02:59:49;100949.32;;;-5.12;73.59
49709;BME280;35601;55.902;13.606;2023-02-22T03:02:24;100944.85;;;-4.88;73.22
49709;BME280;35601;55.902;13.606;2023-02-22T03:04:51;100942.32;;;-4.72;72.47
49709;BME280;35601;55.902;13.606;2023-02-22T03:07:17;100941.11;;;-5.02;72.31
49709;BME280;35601;55.902;13.606;2023-02-22T03:09:38;100944.90;;;-5.01;72.60
49709;BME280;35601;55.902;13.606;2023-02-22T03:12:04;100949.79;;;-5.02;72.25
49709;BME280;35601;55.902;13.606;2023-02-22T03:14:25;100949.91;;;-4.81;72.47
49709;BME280;35601;55.902;13.606;2023-02-22T03:16:51;100950.16;;;-5.13;72.86
49709;BME280;35601;55.902;13.606;2023-02-22T03:19:19;100948.54;;;-5.07;72.90
49709;BME280;35601;55.902;13.606;2023-02-22T03:21:45;100951.98;;;-5.09;72.68
49709;BME280;35601;55.902;13.606;2023-02-22T03:24:08;100952.11;;;-5.10;72.36
49709;BME280;35601;55.902;13.606;2023-02-22T03:26:34;100948.35;;;-4.88;71.85
49709;BME280;35601;55.902;13.606;2023-02-22T03:28:55;100953.23;;;-5.14;71.80
49709;BME280;35601;55.902;13.606;2023-02-22T03:31:22;100953.29;;;-5.20;71.74
49709;BME280;35601;55.902;13.606;2023-02-22T03:33:49;100950.36;;;-5.30;72.22
49709;BME280;35601;55.902;13.606;2023-02-22T03:36:13;100951.16;;;-5.06;72.79
49709;BME280;35601;55.902;13.606;2023-02-22T03:38:37;100949.13;;;-5.37;73.77
49709;BME280;35601;55.902;13.606;2023-02-22T03:41:03;100946.57;;;-5.34;74.63
49709;BME280;35601;55.902;13.606;2023-02-22T03:43:31;100946.20;;;-5.32;75.94
49709;BME280;35601;55.902;13.606;2023-02-22T03:45:53;100943.93;;;-5.22;75.96
49709;BME280;35601;55.902;13.606;2023-02-22T03:48:22;100945.83;;;-5.23;76.27
49709;BME280;35601;55.902;13.606;2023-02-22T03:50:44;100947.22;;;-5.46;76.96
49709;BME280;35601;55.902;13.606;2023-02-22T03:53:09;100949.64;;;-5.52;78.11
49709;BME280;35601;55.902;13.606;2023-02-22T03:55:34;100949.62;;;-5.19;78.29
49709;BME280;35601;55.902;13.606;2023-02-22T03:58:02;100956.26;;;-5.31;79.02
49709;BME280;35601;55.902;13.606;2023-02-22T04:00:28;100960.31;;;-5.18;79.78
49709;BME280;35601;55.902;13.606;2023-02-22T04:02:51;100959.50;;;-5.25;79.79
49709;BME280;35601;55.902;13.606;2023-02-22T04:05:17;100958.80;;;-5.01;79.95
49709;BME280;35601;55.902;13.606;2023-02-22T04:07:42;100960.07;;;-4.99;79.81
49709;BME280;35601;55.902;13.606;2023-02-22T04:10:08;100962.97;;;-5.15;80.21
49709;BME280;35601;55.902;13.606;2023-02-22T04:12:33;100964.51;;;-5.01;79.86
49709;BME280;35601;55.902;13.606;2023-02-22T04:14:58;100963.42;;;-4.73;80.01
49709;BME280;35601;55.902;13.606;2023-02-22T04:17:23;100960.78;;;-4.95;80.11
49709;BME280;35601;55.902;13.606;2023-02-22T04:19:49;100961.63;;;-5.02;79.89
49709;BME280;35601;55.902;13.606;2023-02-22T04:22:14;100960.66;;;-5.02;79.83
49709;BME280;35601;55.902;13.606;2023-02-22T04:24:40;100963.36;;;-4.76;80.24
49709;BME280;35601;55.902;13.606;2023-02-22T04:27:05;100965.95;;;-4.88;80.14
49709;BME280;35601;55.902;13.606;2023-02-22T04:29:30;100965.93;;;-4.82;80.50
49709;BME280;35601;55.902;13.606;2023-02-22T04:31:56;100967.82;;;-4.70;80.40
49709;BME280;35601;55.902;13.606;2023-02-22T04:34:21;100970.35;;;-4.38;80.37
49709;BME280;35601;55.902;13.606;2023-02-22T04:36:47;100969.00;;;-4.63;81.38
49709;BME280;35601;55.902;13.606;2023-02-22T04:39:12;100965.17;;;-4.52;80.86
49709;BME280;35601;55.902;13.606;2023-02-22T04:41:38;100965.30;;;-4.46;80.79
49709;BME280;35601;55.902;13.606;2023-02-22T04:44:04;100969.59;;;-4.41;81.06
49709;BME280;35601;55.902;13.606;2023-02-22T04:46:29;100971.72;;;-4.45;81.40
49709;BME280;35601;55.902;13.606;2023-02-22T04:48:54;100967.66;;;-4.45;81.90
49709;BME280;35601;55.902;13.606;2023-02-22T04:51:20;100973.79;;;-4.27;81.63
49709;BME280;35601;55.902;13.606;2023-02-22T04:53:45;100976.00;;;-4.22;81.72
49709;BME280;35601;55.902;13.606;2023-02-22T04:56:11;100973.92;;;-4.11;81.80
49709;BME280;35601;55.902;13.606;2023-02-22T04:58:36;100973.80;;;-4.28;82.10
49709;BME280;35601;55.902;13.606;2023-02-22T05:01:02;100977.27;;;-3.96;82.10
49709;BME280;35601;55.902;13.606;2023-02-22T05:03:27;100976.34;;;-3.87;82.21
49709;BME280;35601;55.902;13.606;2023-02-22T05:05:52;100977.96;;;-3.97;81.89
49709;BME280;35601;55.902;13.606;2023-02-22T05:08:18;100975.51;;;-4.01;82.69
49709;BME280;35601;55.902;13.606;2023-02-22T05:10:43;100968.08;;;-3.74;82.73
49709;BME280;35601;55.902;13.606;2023-02-22T05:13:08;100962.90;;;-4.06;82.45
49709;BME280;35601;55.902;13.606;2023-02-22T05:15:34;100961.95;;;-3.53;82.54
49709;BME280;35601;55.902;13.606;2023-02-22T05:17:59;100960.34;;;-3.49;82.99
49709;BME280;35601;55.902;13.606;2023-02-22T05:20:27;100956.83;;;-3.60;82.78
49709;BME280;35601;55.902;13.606;2023-02-22T05:22:51;100956.94;;;-4.80;83.12
49709;BME280;35601;55.902;13.606;2023-02-22T05:25:16;100959.64;;;-3.60;82.62
49709;BME280;35601;55.902;13.606;2023-02-22T05:27:41;100960.71;;;-3.59;82.41
49709;BME280;35601;55.902;13.606;2023-02-22T05:30:07;100957.53;;;-3.57;82.33
49709;BME280;35601;55.902;13.606;2023-02-22T05:32:32;100956.37;;;-3.57;82.26
49709;BME280;35601;55.902;13.606;2023-02-22T05:34:57;100960.01;;;-3.64;82.14
49709;BME280;35601;55.902;13.606;2023-02-22T05:37:22;100962.53;;;-3.70;81.75
49709;BME280;35601;55.902;13.606;2023-02-22T05:39:47;100961.51;;;-3.42;82.05
49709;BME280;35601;55.902;13.606;2023-02-22T05:42:13;100960.13;;;-3.27;81.67
49709;BME280;35601;55.902;13.606;2023-02-22T05:44:38;100960.14;;;-3.17;81.47
49709;BME280;35601;55.902;13.606;2023-02-22T05:47:04;100962.99;;;-3.15;81.05
49709;BME280;35601;55.902;13.606;2023-02-22T05:49:29;100962.50;;;-3.40;81.44
49709;BME280;35601;55.902;13.606;2023-02-22T05:51:55;100964.69;;;-3.21;81.34
49709;BME280;35601;55.902;13.606;2023-02-22T05:54:20;100965.38;;;-3.30;81.88
49709;BME280;35601;55.902;13.606;2023-02-22T05:56:45;100963.53;;;-3.15;81.81
49709;BME280;35601;55.902;13.606;2023-02-22T05:59:11;100964.75;;;-3.30;81.32
49709;BME280;35601;55.902;13.606;2023-02-22T06:01:36;100965.06;;;-3.07;81.60
49709;BME280;35601;55.902;13.606;2023-02-22T06:04:02;100966.66;;;-3.26;81.64
49709;BME280;35601;55.902;13.606;2023-02-22T06:06:27;100972.07;;;-2.97;81.49
49709;BME280;35601;55.902;13.606;2023-02-22T06:08:53;100972.07;;;-2.97;81.77
49709;BME280;35601;55.902;13.606;2023-02-22T06:11:18;100976.35;;;-3.11;81.65
49709;BME280;35601;55.902;13.606;2023-02-22T06:13:48;100983.17;;;-3.02;81.24
49709;BME280;35601;55.902;13.606;2023-02-22T06:16:09;100986.79;;;-2.89;80.87
49709;BME280;35601;55.902;13.606;2023-02-22T06:18:35;100988.44;;;-2.90;80.45
49709;BME280;35601;55.902;13.606;2023-02-22T06:21:01;100993.45;;;-2.81;80.33
49709;BME280;35601;55.902;13.606;2023-02-22T06:23:26;100994.20;;;-2.75;80.19
49709;BME280;35601;55.902;13.606;2023-02-22T06:25:51;100993.16;;;-2.97;80.41
49709;BME280;35601;55.902;13.606;2023-02-22T06:28:16;100992.41;;;-2.73;80.53
49709;BME280;35601;55.902;13.606;2023-02-22T06:30:41;100997.22;;;-2.44;80.48
49709;BME280;35601;55.902;13.606;2023-02-22T06:33:07;100999.44;;;-2.66;80.63
49709;BME280;35601;55.902;13.606;2023-02-22T06:35:32;101007.50;;;-2.62;80.73
49709;BME280;35601;55.902;13.606;2023-02-22T06:37:58;101005.89;;;-2.76;80.83
49709;BME280;35601;55.902;13.606;2023-02-22T06:40:23;101006.83;;;-2.48;80.90
49709;BME280;35601;55.902;13.606;2023-02-22T06:42:48;101008.92;;;-2.38;80.46
49709;BME280;35601;55.902;13.606;2023-02-22T06:45:15;101008.37;;;-2.52;80.61
49709;BME280;35601;55.902;13.606;2023-02-22T06:47:39;101008.07;;;-2.44;80.42
49709;BME280;35601;55.902;13.606;2023-02-22T06:50:05;101007.24;;;-2.35;80.46
49709;BME280;35601;55.902;13.606;2023-02-22T06:52:30;101008.98;;;-2.20;80.56
49709;BME280;35601;55.902;13.606;2023-02-22T06:54:55;101009.15;;;-2.49;80.98
49709;BME280;35601;55.902;13.606;2023-02-22T06:57:21;101005.86;;;-2.51;81.20
49709;BME280;35601;55.902;13.606;2023-02-22T06:59:46;101006.68;;;-2.44;81.36
49709;BME280;35601;55.902;13.606;2023-02-22T07:02:12;101010.99;;;-2.00;81.16
49709;BME280;35601;55.902;13.606;2023-02-22T07:04:37;101012.71;;;-2.12;80.67
49709;BME280;35601;55.902;13.606;2023-02-22T07:07:03;101011.13;;;-2.14;80.92
49709;BME280;35601;55.902;13.606;2023-02-22T07:09:27;101013.31;;;-1.92;81.22
49709;BME280;35601;55.902;13.606;2023-02-22T07:11:53;101016.40;;;-1.94;81.48
49709;BME280;35601;55.902;13.606;2023-02-22T07:14:18;101019.35;;;-2.16;81.55
49709;BME280;35601;55.902;13.606;2023-02-22T07:16:43;101019.38;;;-2.13;81.76
49709;BME280;35601;55.902;13.606;2023-02-22T07:19:09;101022.11;;;-2.07;81.70
49709;BME280;35601;55.902;13.606;2023-02-22T07:21:34;101023.25;;;-2.23;81.68
49709;BME280;35601;55.902;13.606;2023-02-22T07:24:00;101026.77;;;-1.89;81.53
49709;BME280;35601;55.902;13.606;2023-02-22T07:26:25;101031.00;;;-1.77;81.28
49709;BME280;35601;55.902;13.606;2023-02-22T07:28:51;101032.85;;;-1.79;81.28
49709;BME280;35601;55.902;13.606;2023-02-22T07:31:16;101037.69;;;-1.64;81.22
49709;BME280;35601;55.902;13.606;2023-02-22T07:33:41;101037.39;;;-1.54;81.09
49709;BME280;35601;55.902;13.606;2023-02-22T07:36:07;101041.51;;;-1.66;80.76
49709;BME280;35601;55.902;13.606;2023-02-22T07:38:32;101038.79;;;-1.64;80.81
49709;BME280;35601;55.902;13.606;2023-02-22T07:40:57;101041.21;;;-1.74;80.77
49709;BME280;35601;55.902;13.606;2023-02-22T07:43:24;101046.78;;;-1.04;80.18
49709;BME280;35601;55.902;13.606;2023-02-22T07:45:49;101046.16;;;-1.63;80.09
49709;BME280;35601;55.902;13.606;2023-02-22T07:48:15;101046.88;;;-1.21;80.16
49709;BME280;35601;55.902;13.606;2023-02-22T07:50:39;101049.71;;;-1.14;80.23
49709;BME280;35601;55.902;13.606;2023-02-22T07:53:05;101048.59;;;-1.37;80.46
49709;BME280;35601;55.902;13.606;2023-02-22T07:55:30;101052.58;;;-1.03;80.15
49709;BME280;35601;55.902;13.606;2023-02-22T07:57:57;101048.34;;;-0.88;79.94
49709;BME280;35601;55.902;13.606;2023-02-22T08:00:23;101051.95;;;-1.25;79.78
49709;BME280;35601;55.902;13.606;2023-02-22T08:02:45;101057.33;;;-0.83;79.79
49709;BME280;35601;55.902;13.606;2023-02-22T08:05:10;101058.21;;;-1.03;80.07
49709;BME280;35601;55.902;13.606;2023-02-22T08:07:36;101054.65;;;-1.22;79.69
49709;BME280;35601;55.902;13.606;2023-02-22T08:10:01;101053.84;;;-1.36;80.59
49709;BME280;35601;55.902;13.606;2023-02-22T08:12:26;101055.85;;;-0.87;80.28
49709;BME280;35601;55.902;13.606;2023-02-22T08:14:51;101057.37;;;-1.15;80.47
49709;BME280;35601;55.902;13.606;2023-02-22T08:17:17;101060.26;;;-1.02;80.39
49709;BME280;35601;55.902;13.606;2023-02-22T08:19:42;101059.35;;;-0.93;80.32
49709;BME280;35601;55.902;13.606;2023-02-22T08:22:07;101057.10;;;-0.85;80.65
49709;BME280;35601;55.902;13.606;2023-02-22T08:24:33;101059.74;;;-0.74;80.13
49709;BME280;35601;55.902;13.606;2023-02-22T08:26:58;101058.57;;;-0.55;79.78
49709;BME280;35601;55.902;13.606;2023-02-22T08:29:24;101057.07;;;-0.89;79.98
49709;BME280;35601;55.902;13.606;2023-02-22T08:31:50;101060.63;;;-0.37;79.42
49709;BME280;35601;55.902;13.606;2023-02-22T08:34:14;101058.33;;;-0.26;78.87
49709;BME280;35601;55.902;13.606;2023-02-22T08:36:41;101056.06;;;-0.50;77.94
49709;BME280;35601;55.902;13.606;2023-02-22T08:39:05;101058.52;;;-0.19;77.64
49709;BME280;35601;55.902;13.606;2023-02-22T08:41:31;101057.59;;;-0.12;76.58
49709;BME280;35601;55.902;13.606;2023-02-22T08:43:56;101058.07;;;-0.01;76.05
49709;BME280;35601;55.902;13.606;2023-02-22T08:46:21;101060.57;;;-0.05;75.50
49709;BME280;35601;55.902;13.606;2023-02-22T08:48:49;101064.23;;;0.10;75.18
49709;BME280;35601;55.902;13.606;2023-02-22T08:51:12;101062.71;;;-0.06;74.99
49709;BME280;35601;55.902;13.606;2023-02-22T08:53:37;101066.85;;;-0.16;74.64
49709;BME280;35601;55.902;13.606;2023-02-22T08:56:03;101069.56;;;0.12;74.58
49709;BME280;35601;55.902;13.606;2023-02-22T08:58:28;101071.19;;;0.18;74.43
49709;BME280;35601;55.902;13.606;2023-02-22T09:00:53;101072.56;;;0.23;73.86
49709;BME280;35601;55.902;13.606;2023-02-22T09:03:18;101073.57;;;0.09;73.58
49709;BME280;35601;55.902;13.606;2023-02-22T09:05:44;101075.49;;;0.09;74.12
49709;BME280;35601;55.902;13.606;2023-02-22T09:08:10;101076.47;;;0.10;74.18
49709;BME280;35601;55.902;13.606;2023-02-22T09:10:36;101078.91;;;0.32;73.58
49709;BME280;35601;55.902;13.606;2023-02-22T09:13:01;101075.11;;;-0.04;73.29
49709;BME280;35601;55.902;13.606;2023-02-22T09:15:26;101068.68;;;0.33;73.20
49709;BME280;35601;55.902;13.606;2023-02-22T09:17:51;101066.64;;;0.64;73.24
49709;BME280;35601;55.902;13.606;2023-02-22T09:20:17;101069.98;;;0.27;73.47
49709;BME280;35601;55.902;13.606;2023-02-22T09:22:43;101072.05;;;0.60;72.81
49709;BME280;35601;55.902;13.606;2023-02-22T09:25:07;101074.50;;;0.61;72.73
49709;BME280;35601;55.902;13.606;2023-02-22T09:27:32;101074.92;;;0.74;72.28
49709;BME280;35601;55.902;13.606;2023-02-22T09:29:58;101072.38;;;1.20;70.88
49709;BME280;35601;55.902;13.606;2023-02-22T09:32:23;101070.36;;;1.09;70.61
49709;BME280;35601;55.902;13.606;2023-02-22T09:34:48;101065.87;;;1.32;70.01
49709;BME280;35601;55.902;13.606;2023-02-22T09:37:13;101063.68;;;1.03;69.82
49709;BME280;35601;55.902;13.606;2023-02-22T09:39:39;101064.26;;;1.34;69.01
49709;BME280;35601;55.902;13.606;2023-02-22T09:42:10;101068.84;;;1.38;69.27
49709;BME280;35601;55.902;13.606;2023-02-22T09:44:35;101065.77;;;1.34;69.44
49709;BME280;35601;55.902;13.606;2023-02-22T09:46:56;101070.84;;;0.78;68.79
49709;BME280;35601;55.902;13.606;2023-02-22T09:49:23;101062.50;;;1.04;68.97
49709;BME280;35601;55.902;13.606;2023-02-22T09:51:48;101060.61;;;0.98;68.41
49709;BME280;35601;55.902;13.606;2023-02-22T09:54:17;101060.98;;;1.13;69.83
49709;BME280;35601;55.902;13.606;2023-02-22T09:56:36;101058.46;;;1.40;68.26
49709;BME280;35601;55.902;13.606;2023-02-22T09:59:04;101059.05;;;0.97;67.53
49709;BME280;35601;55.902;13.606;2023-02-22T10:01:29;101060.32;;;0.83;68.48
49709;BME280;35601;55.902;13.606;2023-02-22T10:03:57;101059.26;;;0.94;67.94
49709;BME280;35601;55.902;13.606;2023-02-22T10:06:20;101057.48;;;1.27;68.72
49709;BME280;35601;55.902;13.606;2023-02-22T10:08:43;101059.02;;;1.11;67.81
49709;BME280;35601;55.902;13.606;2023-02-22T10:11:17;101056.35;;;1.30;67.70
49709;BME280;35601;55.902;13.606;2023-02-22T10:13:41;101064.31;;;1.18;66.44
49709;BME280;35601;55.902;13.606;2023-02-22T10:16:04;101059.04;;;1.14;67.46
49709;BME280;35601;55.902;13.606;2023-02-22T10:18:43;101063.47;;;1.25;67.11
49709;BME280;35601;55.902;13.606;2023-02-22T10:20:52;101063.17;;;1.11;66.26
49709;BME280;35601;55.902;13.606;2023-02-22T10:23:20;101063.61;;;1.29;66.40
49709;BME280;35601;55.902;13.606;2023-02-22T10:25:41;101064.01;;;1.61;65.81
49709;BME280;35601;55.902;13.606;2023-02-22T10:28:10;101066.35;;;1.16;66.80
49709;BME280;35601;55.902;13.606;2023-02-22T10:30:33;101067.29;;;1.09;67.10
49709;BME280;35601;55.902;13.606;2023-02-22T10:32:58;101067.59;;;1.28;67.72
49709;BME280;35601;55.902;13.606;2023-02-22T10:35:24;101073.71;;;1.13;67.79
49709;BME280;35601;55.902;13.606;2023-02-22T10:37:49;101071.88;;;1.12;67.84
49709;BME280;35601;55.902;13.606;2023-02-22T10:40:15;101070.11;;;1.14;68.50
49709;BME280;35601;55.902;13.606;2023-02-22T10:42:37;101065.05;;;1.45;67.81
49709;BME280;35601;55.902;13.606;2023-02-22T10:45:03;101064.06;;;1.53;66.50
49709;BME280;35601;55.902;13.606;2023-02-22T10:47:28;101063.49;;;1.45;65.36
49709;BME280;35601;55.902;13.606;2023-02-22T10:49:55;101059.09;;;1.30;65.19
49709;BME280;35601;55.902;13.606;2023-02-22T10:52:23;101057.53;;;1.24;64.92
49709;BME280;35601;55.902;13.606;2023-02-22T10:54:45;101059.31;;;1.42;66.78
49709;BME280;35601;55.902;13.606;2023-02-22T10:57:10;101059.09;;;1.14;66.44
49709;BME280;35601;55.902;13.606;2023-02-22T10:59:36;101056.23;;;1.42;65.94
49709;BME280;35601;55.902;13.606;2023-02-22T11:02:00;101058.71;;;1.21;66.12
49709;BME280;35601;55.902;13.606;2023-02-22T11:04:25;101059.05;;;1.36;66.83
49709;BME280;35601;55.902;13.606;2023-02-22T11:09:17;101046.80;;;1.68;67.29
49709;BME280;35601;55.902;13.606;2023-02-22T11:11:43;101051.68;;;1.45;68.19
49709;BME280;35601;55.902;13.606;2023-02-22T11:14:08;101053.38;;;1.15;69.31
49709;BME280;35601;55.902;13.606;2023-02-22T11:16:33;101052.49;;;1.41;68.76
49709;BME280;35601;55.902;13.606;2023-02-22T11:19:00;101049.06;;;1.01;69.45
49709;BME280;35601;55.902;13.606;2023-02-22T11:21:23;101046.23;;;1.23;69.65
49709;BME280;35601;55.902;13.606;2023-02-22T11:23:48;101049.79;;;1.34;69.39
49709;BME280;35601;55.902;13.606;2023-02-22T11:26:16;101046.35;;;1.59;70.37
49709;BME280;35601;55.902;13.606;2023-02-22T11:28:42;101049.72;;;1.04;70.86
49709;BME280;35601;55.902;13.606;2023-02-22T11:31:12;101047.84;;;0.79;71.09
49709;BME280;35601;55.902;13.606;2023-02-22T11:33:30;101044.74;;;1.38;70.83
49709;BME280;35601;55.902;13.606;2023-02-22T11:35:56;101040.46;;;1.30;70.45
49709;BME280;35601;55.902;13.606;2023-02-22T11:38:22;101042.03;;;1.15;69.37
49709;BME280;35601;55.902;13.606;2023-02-22T11:40:47;101044.86;;;1.57;70.07
49709;BME280;35601;55.902;13.606;2023-02-22T11:43:15;101045.98;;;1.41;68.21
49709;BME280;35601;55.902;13.606;2023-02-22T11:45:37;101037.54;;;1.64;67.07
49709;BME280;35601;55.902;13.606;2023-02-22T11:48:04;101030.44;;;1.63;66.66
49709;BME280;35601;55.902;13.606;2023-02-22T11:50:29;101030.33;;;1.70;66.30
49709;BME280;35601;55.902;13.606;2023-02-22T11:52:59;101026.57;;;1.24;65.25
49709;BME280;35601;55.902;13.606;2023-02-22T11:55:23;101028.07;;;1.61;65.90
49709;BME280;35601;55.902;13.606;2023-02-22T11:57:54;101024.19;;;1.93;63.89
49709;BME280;35601;55.902;13.606;2023-02-22T12:00:14;101022.89;;;2.06;63.50
49709;BME280;35601;55.902;13.606;2023-02-22T12:02:48;101019.36;;;2.06;63.02
49709;BME280;35601;55.902;13.606;2023-02-22T12:05:11;101022.99;;;2.04;62.61
49709;BME280;35601;55.902;13.606;2023-02-22T12:07:35;101026.00;;;2.08;64.40
49709;BME280;35601;55.902;13.606;2023-02-22T12:09:53;101022.41;;;1.55;65.00
49709;BME280;35601;55.902;13.606;2023-02-22T12:12:20;101020.19;;;1.94;65.13
49709;BME280;35601;55.902;13.606;2023-02-22T12:14:45;101021.52;;;1.83;65.59
49709;BME280;35601;55.902;13.606;2023-02-22T12:17:17;101021.61;;;1.35;66.30
49709;BME280;35601;55.902;13.606;2023-02-22T12:19:34;101017.15;;;1.71;67.02
49709;BME280;35601;55.902;13.606;2023-02-22T12:21:59;101018.69;;;2.05;66.33
49709;BME280;35601;55.902;13.606;2023-02-22T12:24:24;101019.30;;;1.43;66.82
49709;BME280;35601;55.902;13.606;2023-02-22T12:26:49;101017.09;;;1.44;66.44
49709;BME280;35601;55.902;13.606;2023-02-22T12:29:26;101013.38;;;1.31;65.62
49709;BME280;35601;55.902;13.606;2023-02-22T12:31:40;101011.88;;;1.70;66.14
49709;BME280;35601;55.902;13.606;2023-02-22T12:34:07;101014.81;;;1.87;65.08
49709;BME280;35601;55.902;13.606;2023-02-22T12:36:34;101012.30;;;1.72;64.96
49709;BME280;35601;55.902;13.606;2023-02-22T12:38:58;101006.79;;;1.86;63.81
49709;BME280;35601;55.902;13.606;2023-02-22T12:41:25;101005.82;;;2.16;62.90
49709;BME280;35601;55.902;13.606;2023-02-22T12:43:47;101007.47;;;1.78;62.15